sensor_id;sensor_type;location;lat;lon;timestamp;pressure;altitude;pressure_sealevel;temperature;humidity
74230;BME280;62589;12.568;99.958;2022-08-19T00:00:48;100577.72;;;34.09;52.90
74230;BME280;62589;12.568;99.958;2022-08-19T00:03:16;100587.25;;;34.11;52.21
74230;BME280;62589;12.568;99.958;2022-08-19T00:05:42;100591.22;;;34.14;52.50
74230;BME280;62589;12.568;99.958;2022-08-19T00:08:09;100591.63;;;34.16;52.39
74230;BME280;62589;12.568;99.958;2022-08-19T00:10:35;100597.59;;;34.18;52.76
74230;BME280;62589;12.568;99.958;2022-08-19T00:13:01;100600.00;;;34.20;52.34
74230;BME280;62589;12.568;99.958;2022-08-19T00:15:28;100607.94;;;34.21;52.04
74230;BME280;62589;12.568;99.958;2022-08-19T00:17:54;100611.94;;;34.24;51.82
74230;BME280;62589;12.568;99.958;2022-08-19T00:20:21;100621.09;;;34.24;52.08
74230;BME280;62589;12.568;99.958;2022-08-19T00:22:48;100622.69;;;34.25;52.25
74230;BME280;62589;12.568;99.958;2022-08-19T00:25:15;100627.06;;;34.26;52.79
74230;BME280;62589;12.568;99.958;2022-08-19T00:27:41;100626.25;;;34.26;52.28
74230;BME280;62589;12.568;99.958;2022-08-19T00:30:08;100628.66;;;34.27;52.35
74230;BME280;62589;12.568;99.958;2022-08-19T00:32:36;100628.66;;;34.27;52.46
74230;BME280;62589;12.568;99.958;2022-08-19T00:35:03;100634.22;;;34.27;52.21
74230;BME280;62589;12.568;99.958;2022-08-19T00:37:29;100629.44;;;34.28;52.06
74230;BME280;62589;12.568;99.958;2022-08-19T00:39:56;100620.72;;;34.29;51.66
74230;BME280;62589;12.568;99.958;2022-08-19T00:42:23;100618.28;;;34.31;51.81
74230;BME280;62589;12.568;99.958;2022-08-19T00:44:49;100616.69;;;34.37;51.59
74230;BME280;62589;12.568;99.958;2022-08-19T00:47:16;100623.44;;;34.43;51.64
74230;BME280;62589;12.568;99.958;2022-08-19T00:49:53;100620.66;;;34.47;51.95
74230;BME280;62589;12.568;99.958;2022-08-19T00:52:26;100624.59;;;34.53;51.62
74230;BME280;62589;12.568;99.958;2022-08-19T00:54:55;100623.78;;;34.60;51.91
74230;BME280;62589;12.568;99.958;2022-08-19T00:57:33;100628.16;;;34.68;51.81
74230;BME280;62589;12.568;99.958;2022-08-19T01:00:04;100634.88;;;34.74;50.75
74230;BME280;62589;12.568;99.958;2022-08-19T01:02:31;100642.88;;;34.79;50.56
74230;BME280;62589;12.568;99.958;2022-08-19T01:05:01;100644.44;;;34.84;51.03
74230;BME280;62589;12.568;99.958;2022-08-19T01:07:28;100644.38;;;34.94;50.98
74230;BME280;62589;12.568;99.958;2022-08-19T01:09:54;100647.56;;;35.00;50.31
74230;BME280;62589;12.568;99.958;2022-08-19T01:12:21;100646.75;;;34.99;50.08
74230;BME280;62589;12.568;99.958;2022-08-19T01:14:48;100655.91;;;35.07;50.69
74230;BME280;62589;12.568;99.958;2022-08-19T01:17:15;100660.63;;;35.13;50.27
74230;BME280;62589;12.568;99.958;2022-08-19T01:19:43;100667.78;;;35.22;49.48
74230;BME280;62589;12.568;99.958;2022-08-19T01:24:57;100659.75;;;35.34;49.11
74230;BME280;62589;12.568;99.958;2022-08-19T01:27:23;100666.06;;;35.42;49.29
74230;BME280;62589;12.568;99.958;2022-08-19T01:29:49;100661.69;;;35.44;48.83
74230;BME280;62589;12.568;99.958;2022-08-19T01:32:17;100661.22;;;35.53;48.54
74230;BME280;62589;12.568;99.958;2022-08-19T01:34:45;100663.16;;;35.60;49.51
74230;BME280;62589;12.568;99.958;2022-08-19T01:37:13;100659.53;;;35.66;49.15
74230;BME280;62589;12.568;99.958;2022-08-19T01:39:41;100663.88;;;35.74;48.96
74230;BME280;62589;12.568;99.958;2022-08-19T01:42:08;100659.00;;;35.86;48.69
74230;BME280;62589;12.568;99.958;2022-08-19T01:44:38;100657.38;;;35.88;48.51
74230;BME280;62589;12.568;99.958;2022-08-19T01:47:05;100658.91;;;35.96;48.33
74230;BME280;62589;12.568;99.958;2022-08-19T01:49:32;100648.47;;;36.04;48.83
74230;BME280;62589;12.568;99.958;2022-08-19T01:52:00;100654.00;;;36.11;48.70
74230;BME280;62589;12.568;99.958;2022-08-19T01:54:27;100658.75;;;36.14;47.44
74230;BME280;62589;12.568;99.958;2022-08-19T01:56:59;100653.09;;;36.17;46.51
74230;BME280;62589;12.568;99.958;2022-08-19T01:59:27;100653.06;;;36.21;46.41
74230;BME280;62589;12.568;99.958;2022-08-19T02:01:54;100658.63;;;36.28;46.29
74230;BME280;62589;12.568;99.958;2022-08-19T02:04:20;100656.59;;;36.32;46.04
74230;BME280;62589;12.568;99.958;2022-08-19T02:06:47;100659.31;;;36.39;46.04
74230;BME280;62589;12.568;99.958;2022-08-19T02:09:13;100652.88;;;36.42;45.10
74230;BME280;62589;12.568;99.958;2022-08-19T02:11:41;100653.66;;;36.46;45.02
74230;BME280;62589;12.568;99.958;2022-08-19T02:14:08;100656.38;;;36.54;45.78
74230;BME280;62589;12.568;99.958;2022-08-19T02:16:35;100667.16;;;36.55;45.26
74230;BME280;62589;12.568;99.958;2022-08-19T02:19:03;100661.03;;;36.64;44.32
74230;BME280;62589;12.568;99.958;2022-08-19T02:21:30;100655.00;;;36.69;43.96
74230;BME280;62589;12.568;99.958;2022-08-19T02:23:56;100652.56;;;36.71;44.39
74230;BME280;62589;12.568;99.958;2022-08-19T02:26:24;100646.13;;;36.77;43.52
74230;BME280;62589;12.568;99.958;2022-08-19T02:28:52;100640.47;;;36.81;44.19
74230;BME280;62589;12.568;99.958;2022-08-19T02:31:23;100645.97;;;36.88;44.41
74230;BME280;62589;12.568;99.958;2022-08-19T02:33:50;100639.56;;;36.91;44.69
74230;BME280;62589;12.568;99.958;2022-08-19T02:36:18;100637.00;;;37.00;44.76
74230;BME280;62589;12.568;99.958;2022-08-19T02:38:45;100643.31;;;37.08;44.38
74230;BME280;62589;12.568;99.958;2022-08-19T02:41:20;100640.97;;;37.03;42.22
74230;BME280;62589;12.568;99.958;2022-08-19T02:43:47;100640.06;;;37.13;43.42
74230;BME280;62589;12.568;99.958;2022-08-19T02:46:23;100637.53;;;37.22;42.97
74230;BME280;62589;12.568;99.958;2022-08-19T02:48:52;100635.84;;;37.28;42.96
74230;BME280;62589;12.568;99.958;2022-08-19T02:51:22;100634.22;;;37.31;42.93
74230;BME280;62589;12.568;99.958;2022-08-19T02:53:49;100633.47;;;37.27;42.71
74230;BME280;62589;12.568;99.958;2022-08-19T02:56:16;100635.06;;;37.28;43.10
74230;BME280;62589;12.568;99.958;2022-08-19T02:58:43;100628.63;;;37.31;42.88
74230;BME280;62589;12.568;99.958;2022-08-19T03:01:11;100632.63;;;37.30;42.87
74230;BME280;62589;12.568;99.958;2022-08-19T03:03:38;100624.59;;;37.32;43.20
74230;BME280;62589;12.568;99.958;2022-08-19T03:06:10;100623.78;;;37.35;43.05
74230;BME280;62589;12.568;99.958;2022-08-19T03:08:41;100620.50;;;37.40;43.50
74230;BME280;62589;12.568;99.958;2022-08-19T03:11:28;100629.13;;;37.49;42.62
74230;BME280;62589;12.568;99.958;2022-08-19T03:13:56;100611.91;;;37.50;43.12
74230;BME280;62589;12.568;99.958;2022-08-19T03:16:24;100619.03;;;37.55;42.83
74230;BME280;62589;12.568;99.958;2022-08-19T03:18:52;100616.97;;;37.59;43.23
74230;BME280;62589;12.568;99.958;2022-08-19T03:21:24;100627.31;;;37.62;42.99
74230;BME280;62589;12.568;99.958;2022-08-19T03:23:55;100624.16;;;37.60;42.65
74230;BME280;62589;12.568;99.958;2022-08-19T03:26:22;100615.41;;;37.58;42.01
74230;BME280;62589;12.568;99.958;2022-08-19T03:28:48;100618.91;;;37.62;42.23
74230;BME280;62589;12.568;99.958;2022-08-19T03:31:18;100616.09;;;37.62;42.22
74230;BME280;62589;12.568;99.958;2022-08-19T03:33:45;100607.28;;;37.64;42.24
74230;BME280;62589;12.568;99.958;2022-08-19T03:36:18;100602.09;;;37.62;42.64
74230;BME280;62589;12.568;99.958;2022-08-19T03:38:49;100600.50;;;37.65;42.49
74230;BME280;62589;12.568;99.958;2022-08-19T03:41:19;100607.38;;;37.60;42.29
74230;BME280;62589;12.568;99.958;2022-08-19T03:43:47;100607.38;;;37.60;42.42
74230;BME280;62589;12.568;99.958;2022-08-19T03:46:17;100606.56;;;37.60;42.57
74230;BME280;62589;12.568;99.958;2022-08-19T03:48:47;100600.28;;;37.52;42.18
74230;BME280;62589;12.568;99.958;2022-08-19T03:51:23;100600.72;;;37.50;43.02
74230;BME280;62589;12.568;99.958;2022-08-19T03:53:51;100599.53;;;37.48;43.50
74230;BME280;62589;12.568;99.958;2022-08-19T03:56:18;100591.94;;;37.48;43.69
74230;BME280;62589;12.568;99.958;2022-08-19T03:58:45;100588.75;;;37.46;43.30
74230;BME280;62589;12.568;99.958;2022-08-19T04:01:15;100590.28;;;37.51;43.71
74230;BME280;62589;12.568;99.958;2022-08-19T04:03:41;100586.59;;;37.58;43.47
74230;BME280;62589;12.568;99.958;2022-08-19T04:06:18;100579.69;;;37.62;42.76
74230;BME280;62589;12.568;99.958;2022-08-19T04:08:46;100584.47;;;37.65;42.69
74230;BME280;62589;12.568;99.958;2022-08-19T04:11:15;100579.59;;;37.69;43.07
74230;BME280;62589;12.568;99.958;2022-08-19T04:13:42;100578.75;;;37.72;42.77
74230;BME280;62589;12.568;99.958;2022-08-19T04:16:12;100573.09;;;37.76;42.52
74230;BME280;62589;12.568;99.958;2022-08-19T04:18:39;100582.28;;;37.76;42.66
74230;BME280;62589;12.568;99.958;2022-08-19T04:21:07;100571.09;;;37.76;42.79
74230;BME280;62589;12.568;99.958;2022-08-19T04:23:34;100573.09;;;37.76;42.45
74230;BME280;62589;12.568;99.958;2022-08-19T04:26:02;100576.22;;;37.81;42.59
74230;BME280;62589;12.568;99.958;2022-08-19T04:28:28;100578.13;;;37.84;43.01
74230;BME280;62589;12.568;99.958;2022-08-19T04:30:55;100564.84;;;37.89;44.27
74230;BME280;62589;12.568;99.958;2022-08-19T04:33:23;100570.75;;;37.94;44.03
74230;BME280;62589;12.568;99.958;2022-08-19T04:35:51;100571.50;;;37.98;44.26
74230;BME280;62589;12.568;99.958;2022-08-19T04:38:20;100565.81;;;38.02;44.30
74230;BME280;62589;12.568;99.958;2022-08-19T04:40:50;100559.34;;;38.05;44.33
74230;BME280;62589;12.568;99.958;2022-08-19T04:43:28;100564.50;;;38.06;43.79
74230;BME280;62589;12.568;99.958;2022-08-19T04:45:56;100548.13;;;38.05;43.69
74230;BME280;62589;12.568;99.958;2022-08-19T04:48:23;100555.72;;;38.04;43.81
74230;BME280;62589;12.568;99.958;2022-08-19T04:50:54;100552.13;;;38.04;44.47
74230;BME280;62589;12.568;99.958;2022-08-19T04:53:29;100550.22;;;38.01;44.42
74230;BME280;62589;12.568;99.958;2022-08-19T04:56:03;100547.41;;;38.01;43.95
74230;BME280;62589;12.568;99.958;2022-08-19T04:58:30;100551.44;;;38.00;43.44
74230;BME280;62589;12.568;99.958;2022-08-19T05:00:56;100544.31;;;37.95;43.84
74230;BME280;62589;12.568;99.958;2022-08-19T05:03:26;100546.75;;;37.93;43.98
74230;BME280;62589;12.568;99.958;2022-08-19T05:05:52;100542.44;;;37.89;44.23
74230;BME280;62589;12.568;99.958;2022-08-19T05:08:20;100542.13;;;37.83;44.53
74230;BME280;62589;12.568;99.958;2022-08-19T05:10:49;100538.19;;;37.80;44.24
74230;BME280;62589;12.568;99.958;2022-08-19T05:13:18;100532.72;;;37.73;44.87
74230;BME280;62589;12.568;99.958;2022-08-19T05:15:54;100533.56;;;37.70;44.50
74230;BME280;62589;12.568;99.958;2022-08-19T05:18:21;100524.78;;;37.68;44.77
74230;BME280;62589;12.568;99.958;2022-08-19T05:20:59;100516.03;;;37.66;45.51
74230;BME280;62589;12.568;99.958;2022-08-19T05:23:42;100511.41;;;37.79;45.54
74230;BME280;62589;12.568;99.958;2022-08-19T05:26:10;100495.19;;;37.67;45.14
74230;BME280;62589;12.568;99.958;2022-08-19T05:28:37;100493.22;;;37.64;45.26
74230;BME280;62589;12.568;99.958;2022-08-19T05:31:03;100490.41;;;37.64;45.99
74230;BME280;62589;12.568;99.958;2022-08-19T05:33:30;100488.00;;;37.66;46.32
74230;BME280;62589;12.568;99.958;2022-08-19T05:35:57;100475.88;;;37.73;46.27
74230;BME280;62589;12.568;99.958;2022-08-19T05:38:24;100477.78;;;37.79;45.98
74230;BME280;62589;12.568;99.958;2022-08-19T05:40:53;100475.59;;;37.87;46.11
74230;BME280;62589;12.568;99.958;2022-08-19T05:43:19;100468.72;;;37.92;45.31
74230;BME280;62589;12.568;99.958;2022-08-19T05:45:46;100461.81;;;37.96;45.51
74230;BME280;62589;12.568;99.958;2022-08-19T05:48:13;100455.19;;;38.06;45.34
74230;BME280;62589;12.568;99.958;2022-08-19T05:50:40;100446.66;;;38.13;45.60
74230;BME280;62589;12.568;99.958;2022-08-19T05:53:07;100443.66;;;38.24;44.90
74230;BME280;62589;12.568;99.958;2022-08-19T05:55:35;100436.28;;;38.30;45.03
74230;BME280;62589;12.568;99.958;2022-08-19T05:58:04;100432.19;;;38.35;44.56
74230;BME280;62589;12.568;99.958;2022-08-19T06:00:34;100425.78;;;38.34;44.21
74230;BME280;62589;12.568;99.958;2022-08-19T06:03:00;100428.22;;;38.32;44.38
74230;BME280;62589;12.568;99.958;2022-08-19T06:05:30;100418.25;;;38.31;43.75
74230;BME280;62589;12.568;99.958;2022-08-19T06:07:56;100413.84;;;38.30;43.19
74230;BME280;62589;12.568;99.958;2022-08-19T06:10:25;100413.13;;;38.26;43.07
74230;BME280;62589;12.568;99.958;2022-08-19T06:12:53;100419.63;;;38.23;43.99
74230;BME280;62589;12.568;99.958;2022-08-19T06:15:20;100412.88;;;38.21;43.95
74230;BME280;62589;12.568;99.958;2022-08-19T06:17:52;100401.31;;;38.19;43.67
74230;BME280;62589;12.568;99.958;2022-08-19T06:20:18;100399.81;;;38.14;43.67
74230;BME280;62589;12.568;99.958;2022-08-19T06:22:47;100394.75;;;38.05;44.28
74230;BME280;62589;12.568;99.958;2022-08-19T06:25:15;100400.22;;;38.12;43.77
74230;BME280;62589;12.568;99.958;2022-08-19T06:27:43;100386.16;;;38.16;43.97
74230;BME280;62589;12.568;99.958;2022-08-19T06:30:11;100383.78;;;38.14;43.88
74230;BME280;62589;12.568;99.958;2022-08-19T06:32:38;100365.84;;;38.08;43.36
74230;BME280;62589;12.568;99.958;2022-08-19T06:35:05;100359.81;;;38.10;43.72
74230;BME280;62589;12.568;99.958;2022-08-19T06:37:31;100349.34;;;38.14;44.39
74230;BME280;62589;12.568;99.958;2022-08-19T06:39:58;100345.97;;;38.03;43.68
74230;BME280;62589;12.568;99.958;2022-08-19T06:42:24;100345.63;;;38.01;44.08
74230;BME280;62589;12.568;99.958;2022-08-19T06:44:51;100337.91;;;38.05;44.47
74230;BME280;62589;12.568;99.958;2022-08-19T06:47:19;100343.19;;;38.03;45.46
74230;BME280;62589;12.568;99.958;2022-08-19T06:49:46;100343.19;;;38.03;45.59
74230;BME280;62589;12.568;99.958;2022-08-19T06:52:13;100343.25;;;37.99;45.29
74230;BME280;62589;12.568;99.958;2022-08-19T06:54:41;100341.75;;;37.95;44.77
74230;BME280;62589;12.568;99.958;2022-08-19T06:57:08;100341.16;;;37.83;45.25
74230;BME280;62589;12.568;99.958;2022-08-19T06:59:39;100342.41;;;37.82;45.16
74230;BME280;62589;12.568;99.958;2022-08-19T07:02:06;100337.69;;;37.79;45.01
74230;BME280;62589;12.568;99.958;2022-08-19T07:04:35;100343.78;;;37.74;44.88
74230;BME280;62589;12.568;99.958;2022-08-19T07:07:09;100349.38;;;37.74;44.91
74230;BME280;62589;12.568;99.958;2022-08-19T07:09:38;100337.09;;;37.68;45.27
74230;BME280;62589;12.568;99.958;2022-08-19T07:12:06;100331.84;;;37.70;45.54
74230;BME280;62589;12.568;99.958;2022-08-19T07:14:33;100332.28;;;37.69;45.45
74230;BME280;62589;12.568;99.958;2022-08-19T07:17:06;100330.75;;;37.64;45.99
74230;BME280;62589;12.568;99.958;2022-08-19T07:19:33;100324.75;;;37.66;46.26
74230;BME280;62589;12.568;99.958;2022-08-19T07:22:02;100327.56;;;37.66;45.98
74230;BME280;62589;12.568;99.958;2022-08-19T07:24:30;100318.34;;;37.65;46.67
74230;BME280;62589;12.568;99.958;2022-08-19T07:26:58;100320.72;;;37.67;47.40
74230;BME280;62589;12.568;99.958;2022-08-19T07:29:32;100323.09;;;37.68;47.62
74230;BME280;62589;12.568;99.958;2022-08-19T07:32:00;100316.28;;;37.69;47.62
74230;BME280;62589;12.568;99.958;2022-08-19T07:34:28;100307.16;;;37.65;47.25
74230;BME280;62589;12.568;99.958;2022-08-19T07:36:56;100301.56;;;37.65;47.40
74230;BME280;62589;12.568;99.958;2022-08-19T07:39:29;100299.94;;;37.64;47.35
74230;BME280;62589;12.568;99.958;2022-08-19T07:41:57;100305.84;;;37.70;47.34
74230;BME280;62589;12.568;99.958;2022-08-19T07:44:24;100305.84;;;37.70;47.05
74230;BME280;62589;12.568;99.958;2022-08-19T07:46:54;100294.66;;;37.70;46.94
74230;BME280;62589;12.568;99.958;2022-08-19T07:49:22;100295.00;;;37.72;47.30
74230;BME280;62589;12.568;99.958;2022-08-19T07:52:01;100292.56;;;37.74;47.65
74230;BME280;62589;12.568;99.958;2022-08-19T07:54:31;100279.84;;;37.69;47.33
74230;BME280;62589;12.568;99.958;2022-08-19T07:56:59;100286.69;;;37.68;46.83
74230;BME280;62589;12.568;99.958;2022-08-19T07:59:28;100305.53;;;37.64;47.00
74230;BME280;62589;12.568;99.958;2022-08-19T08:01:56;100325.16;;;37.64;47.83
74230;BME280;62589;12.568;99.958;2022-08-19T08:04:23;100336.00;;;37.62;50.00
74230;BME280;62589;12.568;99.958;2022-08-19T08:07:02;100344.50;;;37.59;51.26
74230;BME280;62589;12.568;99.958;2022-08-19T08:09:42;100337.03;;;37.52;52.12
74230;BME280;62589;12.568;99.958;2022-08-19T08:12:14;100333.94;;;37.46;52.30
74230;BME280;62589;12.568;99.958;2022-08-19T08:14:44;100330.06;;;37.40;52.32
74230;BME280;62589;12.568;99.958;2022-08-19T08:17:12;100318.50;;;37.38;52.24
74230;BME280;62589;12.568;99.958;2022-08-19T08:19:39;100305.06;;;37.30;51.86
74230;BME280;62589;12.568;99.958;2022-08-19T08:22:07;100294.78;;;37.23;52.03
74230;BME280;62589;12.568;99.958;2022-08-19T08:24:35;100276.91;;;37.17;52.63
74230;BME280;62589;12.568;99.958;2022-08-19T08:27:02;100276.97;;;37.13;52.90
74230;BME280;62589;12.568;99.958;2022-08-19T08:29:30;100264.69;;;37.07;53.03
74230;BME280;62589;12.568;99.958;2022-08-19T08:31:57;100254.34;;;37.04;53.85
74230;BME280;62589;12.568;99.958;2022-08-19T08:34:23;100254.50;;;36.97;53.29
74230;BME280;62589;12.568;99.958;2022-08-19T08:36:50;100244.59;;;36.93;53.48
74230;BME280;62589;12.568;99.958;2022-08-19T08:39:19;100251.03;;;36.90;54.30
74230;BME280;62589;12.568;99.958;2022-08-19T08:42:01;100238.34;;;36.85;54.74
74230;BME280;62589;12.568;99.958;2022-08-19T08:44:49;100231.16;;;36.84;54.45
74230;BME280;62589;12.568;99.958;2022-08-19T08:47:20;100236.03;;;36.80;54.30
74230;BME280;62589;12.568;99.958;2022-08-19T08:50:03;100224.84;;;36.80;53.91
74230;BME280;62589;12.568;99.958;2022-08-19T08:52:34;100213.75;;;36.76;54.27
74230;BME280;62589;12.568;99.958;2022-08-19T08:55:08;100213.31;;;36.78;54.63
74230;BME280;62589;12.568;99.958;2022-08-19T08:57:55;100202.13;;;36.78;53.39
74230;BME280;62589;12.568;99.958;2022-08-19T09:00:30;100203.69;;;36.79;53.28
74230;BME280;62589;12.568;99.958;2022-08-19T09:02:58;100202.81;;;36.82;52.75
74230;BME280;62589;12.568;99.958;2022-08-19T09:05:40;100201.59;;;36.83;53.54
74230;BME280;62589;12.568;99.958;2022-08-19T09:11:06;100202.34;;;36.87;54.20
74230;BME280;62589;12.568;99.958;2022-08-19T09:14:02;100201.84;;;36.92;54.17
74230;BME280;62589;12.568;99.958;2022-08-19T09:16:31;100197.47;;;36.91;54.61
74230;BME280;62589;12.568;99.958;2022-08-19T09:19:02;100208.28;;;36.89;55.20
74230;BME280;62589;12.568;99.958;2022-08-19T09:21:29;100209.88;;;36.90;55.17
74230;BME280;62589;12.568;99.958;2022-08-19T09:23:55;100217.47;;;36.90;55.47
74230;BME280;62589;12.568;99.958;2022-08-19T09:26:24;100219.91;;;36.88;55.96
74230;BME280;62589;12.568;99.958;2022-08-19T09:28:52;100225.63;;;36.80;52.58
74230;BME280;62589;12.568;99.958;2022-08-19T09:31:25;100221.72;;;36.78;53.29
74230;BME280;62589;12.568;99.958;2022-08-19T09:33:53;100226.84;;;36.79;53.90
74230;BME280;62589;12.568;99.958;2022-08-19T09:36:24;100241.28;;;36.78;54.02
74230;BME280;62589;12.568;99.958;2022-08-19T09:38:52;100240.13;;;36.75;54.03
74230;BME280;62589;12.568;99.958;2022-08-19T09:41:22;100246.94;;;36.74;54.46
74230;BME280;62589;12.568;99.958;2022-08-19T09:43:51;100253.75;;;36.73;54.76
74230;BME280;62589;12.568;99.958;2022-08-19T09:46:20;100257.38;;;36.70;55.25
74230;BME280;62589;12.568;99.958;2022-08-19T09:48:50;100267.78;;;36.70;55.33
74230;BME280;62589;12.568;99.958;2022-08-19T09:51:21;100278.22;;;36.66;55.12
74230;BME280;62589;12.568;99.958;2022-08-19T09:53:50;100289.03;;;36.64;55.64
74230;BME280;62589;12.568;99.958;2022-08-19T09:56:21;100293.91;;;36.60;55.75
74230;BME280;62589;12.568;99.958;2022-08-19T09:58:48;100296.69;;;36.60;55.96
74230;BME280;62589;12.568;99.958;2022-08-19T10:01:20;100296.78;;;36.56;55.99
74230;BME280;62589;12.568;99.958;2022-08-19T10:03:49;100293.19;;;36.56;56.56
74230;BME280;62589;12.568;99.958;2022-08-19T10:06:17;100280.06;;;36.53;56.46
74230;BME280;62589;12.568;99.958;2022-08-19T10:08:43;100292.47;;;36.52;56.78
74230;BME280;62589;12.568;99.958;2022-08-19T10:11:10;100284.13;;;36.48;56.91
74230;BME280;62589;12.568;99.958;2022-08-19T10:13:37;100281.75;;;36.46;56.70
74230;BME280;62589;12.568;99.958;2022-08-19T10:16:06;100282.19;;;36.45;57.05
74230;BME280;62589;12.568;99.958;2022-08-19T10:18:33;100280.22;;;36.42;57.52
74230;BME280;62589;12.568;99.958;2022-08-19T10:21:07;100289.84;;;36.41;57.01
74230;BME280;62589;12.568;99.958;2022-08-19T10:23:38;100290.69;;;36.38;57.09
74230;BME280;62589;12.568;99.958;2022-08-19T10:26:06;100291.13;;;36.36;57.19
74230;BME280;62589;12.568;99.958;2022-08-19T10:28:34;100293.56;;;36.34;57.28
74230;BME280;62589;12.568;99.958;2022-08-19T10:31:07;100287.59;;;36.32;57.18
74230;BME280;62589;12.568;99.958;2022-08-19T10:33:37;100288.81;;;36.31;56.87
74230;BME280;62589;12.568;99.958;2022-08-19T10:36:08;100303.19;;;36.30;56.76
74230;BME280;62589;12.568;99.958;2022-08-19T10:38:36;100306.41;;;36.28;57.34
74230;BME280;62589;12.568;99.958;2022-08-19T10:41:12;100300.47;;;36.26;57.63
74230;BME280;62589;12.568;99.958;2022-08-19T10:43:40;100293.28;;;36.25;57.46
74230;BME280;62589;12.568;99.958;2022-08-19T10:46:09;100300.47;;;36.23;57.70
74230;BME280;62589;12.568;99.958;2022-08-19T10:48:36;100300.91;;;36.21;57.49
74230;BME280;62589;12.568;99.958;2022-08-19T10:51:03;100298.53;;;36.20;57.80
74230;BME280;62589;12.568;99.958;2022-08-19T10:53:41;100306.53;;;36.17;57.63
74230;BME280;62589;12.568;99.958;2022-08-19T10:56:08;100316.94;;;36.17;57.79
74230;BME280;62589;12.568;99.958;2022-08-19T10:58:48;100334.16;;;36.15;58.29
74230;BME280;62589;12.568;99.958;2022-08-19T11:01:15;100340.94;;;36.14;58.03
74230;BME280;62589;12.568;99.958;2022-08-19T11:03:41;100348.16;;;36.12;58.27
74230;BME280;62589;12.568;99.958;2022-08-19T11:06:08;100349.38;;;36.11;58.28
74230;BME280;62589;12.568;99.958;2022-08-19T11:08:35;100348.22;;;36.08;58.34
74230;BME280;62589;12.568;99.958;2022-08-19T11:11:04;100344.25;;;36.06;58.40
74230;BME280;62589;12.568;99.958;2022-08-19T11:13:33;100345.03;;;36.06;58.12
74230;BME280;62589;12.568;99.958;2022-08-19T11:16:03;100353.47;;;36.03;58.64
74230;BME280;62589;12.568;99.958;2022-08-19T11:18:30;100353.47;;;36.03;58.58
74230;BME280;62589;12.568;99.958;2022-08-19T11:21:07;100360.25;;;36.02;58.52
74230;BME280;62589;12.568;99.958;2022-08-19T11:23:33;100355.09;;;36.00;58.77
74230;BME280;62589;12.568;99.958;2022-08-19T11:26:00;100352.31;;;36.00;58.59
74230;BME280;62589;12.568;99.958;2022-08-19T11:28:27;100349.94;;;35.99;58.45
74230;BME280;62589;12.568;99.958;2022-08-19T11:30:54;100348.00;;;35.96;58.51
74230;BME280;62589;12.568;99.958;2022-08-19T11:33:21;100353.22;;;35.94;58.64
74230;BME280;62589;12.568;99.958;2022-08-19T11:35:47;100353.22;;;35.94;58.65
74230;BME280;62589;12.568;99.958;2022-08-19T11:38:15;100357.63;;;35.91;58.85
74230;BME280;62589;12.568;99.958;2022-08-19T11:40:41;100364.47;;;35.87;58.39
74230;BME280;62589;12.568;99.958;2022-08-19T11:43:08;100359.31;;;35.85;58.13
74230;BME280;62589;12.568;99.958;2022-08-19T11:45:35;100366.50;;;35.83;57.97
74230;BME280;62589;12.568;99.958;2022-08-19T11:48:02;100374.09;;;35.82;58.01
74230;BME280;62589;12.568;99.958;2022-08-19T11:50:29;100374.50;;;35.80;58.07
74230;BME280;62589;12.568;99.958;2022-08-19T11:52:56;100373.34;;;35.78;57.90
74230;BME280;62589;12.568;99.958;2022-08-19T11:55:23;100381.72;;;35.78;58.16
74230;BME280;62589;12.568;99.958;2022-08-19T11:57:53;100388.16;;;35.75;57.91
74230;BME280;62589;12.568;99.958;2022-08-19T12:00:19;100390.19;;;35.71;58.17
74230;BME280;62589;12.568;99.958;2022-08-19T12:02:45;100396.19;;;35.69;57.91
74230;BME280;62589;12.568;99.958;2022-08-19T12:05:12;100394.22;;;35.66;57.96
74230;BME280;62589;12.568;99.958;2022-08-19T12:07:39;100413.38;;;35.64;58.16
74230;BME280;62589;12.568;99.958;2022-08-19T12:10:06;100409.41;;;35.62;58.09
74230;BME280;62589;12.568;99.958;2022-08-19T12:12:33;100422.22;;;35.59;58.01
74230;BME280;62589;12.568;99.958;2022-08-19T12:14:59;100421.03;;;35.57;57.59
74230;BME280;62589;12.568;99.958;2022-08-19T12:17:26;100429.84;;;35.55;57.45
74230;BME280;62589;12.568;99.958;2022-08-19T12:19:53;100438.22;;;35.55;57.37
74230;BME280;62589;12.568;99.958;2022-08-19T12:22:20;100428.69;;;35.53;57.40
74230;BME280;62589;12.568;99.958;2022-08-19T12:24:47;100425.94;;;35.49;57.96
74230;BME280;62589;12.568;99.958;2022-08-19T12:27:16;100428.72;;;35.49;57.42
74230;BME280;62589;12.568;99.958;2022-08-19T12:29:42;100425.16;;;35.45;57.64
74230;BME280;62589;12.568;99.958;2022-08-19T12:32:09;100428.78;;;35.42;58.06
74230;BME280;62589;12.568;99.958;2022-08-19T12:34:36;100433.56;;;35.41;58.02
74230;BME280;62589;12.568;99.958;2022-08-19T12:37:05;100447.16;;;35.39;57.85
74230;BME280;62589;12.568;99.958;2022-08-19T12:39:39;100456.72;;;35.38;57.49
74230;BME280;62589;12.568;99.958;2022-08-19T12:42:09;100464.72;;;35.36;57.92
74230;BME280;62589;12.568;99.958;2022-08-19T12:44:38;100464.34;;;35.34;58.26
74230;BME280;62589;12.568;99.958;2022-08-19T12:47:06;100469.97;;;35.31;58.32
74230;BME280;62589;12.568;99.958;2022-08-19T12:49:33;100479.97;;;35.28;58.22
74230;BME280;62589;12.568;99.958;2022-08-19T12:52:01;100488.72;;;35.27;58.07
74230;BME280;62589;12.568;99.958;2022-08-19T12:54:29;100491.13;;;35.25;58.13